Skip Navigation LinksHome page > Weather > Current weather Skip Navigation Links

Current Weather

Denver Intl, Denver

For information only: do not use for flight planning or navigation.
Latest weather
Observation time Sunday, September 20, 2020 6:53 AM MDT
Local time Sunday, September 20, 2020 7:42 AM MDT
Flight conditions Visual Meteorological Conditions
Winds
Wind direction South (190°)
Wind speed 14 mph
Visibility 10 mi.
Sky condition
Ceiling unlimited
Cloud layer few clouds 13,000 ft.
Cloud layer scattered clouds 18,000 ft.
Temperature 61°F
Dewpoint 35°F
Altimeter 30.09 in.Hg
Derived measurements
Relative humidity 38%
Density altitude 5474 ft.
Sea-level pressure 29.87 in.Hg
Remarks
Automated weather observing station with precipitation discriminator.
METAR KDEN 201253Z 19012KT 10SM FEW130 SCT180 16/02 A3009 RMK AO2 SLP114 T01610017

Settings

Location code

InnerDrive.Weather 4.0.6770.0 Release CLR 4.0.30319.42000
Copyright ©2018 Inner Drive Technology. All rights reserved. Portions Copyright ©1986-2018 David Braverman.

Find weather

Site navigation


Skip Navigation Links

Place info

Page info

PayPal - The safer, easier way to pay online!

Return home.

Copyright ©2020 Inner Drive Technology. Purveyors of fine, hand-crafted computer software. Page printed 2020-09-20T13:42:37 UTC.